sensor_id;sensor_type;location;lat;lon;timestamp;temperature;humidity
32215;DHT22;18708;53.124;23.190;2023-01-29T00:01:12;-1.50;1.00
32215;DHT22;18708;53.124;23.190;2023-01-29T00:03:38;-1.50;1.00
32215;DHT22;18708;53.124;23.190;2023-01-29T00:06:05;-1.50;1.00
32215;DHT22;18708;53.124;23.190;2023-01-29T00:08:35;-1.60;1.00
32215;DHT22;18708;53.124;23.190;2023-01-29T00:11:05;-1.60;99.90
32215;DHT22;18708;53.124;23.190;2023-01-29T00:13:31;-1.60;99.90
32215;DHT22;18708;53.124;23.190;2023-01-29T00:15:59;-1.60;99.90
32215;DHT22;18708;53.124;23.190;2023-01-29T00:18:25;-1.60;1.00
32215;DHT22;18708;53.124;23.190;2023-01-29T00:20:51;-1.70;1.00
32215;DHT22;18708;53.124;23.190;2023-01-29T00:23:18;-1.70;1.00
32215;DHT22;18708;53.124;23.190;2023-01-29T00:25:44;-1.70;1.00
32215;DHT22;18708;53.124;23.190;2023-01-29T00:28:12;-1.70;1.00
32215;DHT22;18708;53.124;23.190;2023-01-29T00:30:38;-1.70;1.00
32215;DHT22;18708;53.124;23.190;2023-01-29T00:33:04;-1.70;1.00
32215;DHT22;18708;53.124;23.190;2023-01-29T00:35:30;-1.70;1.00
32215;DHT22;18708;53.124;23.190;2023-01-29T00:37:57;-1.70;1.00
32215;DHT22;18708;53.124;23.190;2023-01-29T00:40:24;-1.70;1.00
32215;DHT22;18708;53.124;23.190;2023-01-29T00:42:50;-1.70;1.00
32215;DHT22;18708;53.124;23.190;2023-01-29T00:45:34;-1.70;1.00
32215;DHT22;18708;53.124;23.190;2023-01-29T00:48:02;-1.70;1.00
32215;DHT22;18708;53.124;23.190;2023-01-29T00:50:28;-1.70;1.00
32215;DHT22;18708;53.124;23.190;2023-01-29T00:52:54;-1.60;99.90
32215;DHT22;18708;53.124;23.190;2023-01-29T00:55:20;-1.60;99.90
32215;DHT22;18708;53.124;23.190;2023-01-29T00:57:45;-1.60;99.90
32215;DHT22;18708;53.124;23.190;2023-01-29T01:00:14;-1.60;88.10
32215;DHT22;18708;53.124;23.190;2023-01-29T01:02:40;-1.60;99.90
32215;DHT22;18708;53.124;23.190;2023-01-29T01:05:25;-1.70;99.90
32215;DHT22;18708;53.124;23.190;2023-01-29T01:07:53;-1.70;99.90
32215;DHT22;18708;53.124;23.190;2023-01-29T01:10:25;-1.60;99.90
32215;DHT22;18708;53.124;23.190;2023-01-29T01:12:57;-1.60;99.90
32215;DHT22;18708;53.124;23.190;2023-01-29T01:15:28;-1.60;99.90
32215;DHT22;18708;53.124;23.190;2023-01-29T01:17:56;-1.70;99.90
32215;DHT22;18708;53.124;23.190;2023-01-29T01:20:23;-1.70;99.90
32215;DHT22;18708;53.124;23.190;2023-01-29T01:22:51;-1.70;1.00
32215;DHT22;18708;53.124;23.190;2023-01-29T01:25:17;-1.70;99.90
32215;DHT22;18708;53.124;23.190;2023-01-29T01:27:43;-1.70;99.90
32215;DHT22;18708;53.124;23.190;2023-01-29T01:30:12;-1.70;1.00
32215;DHT22;18708;53.124;23.190;2023-01-29T01:32:38;-1.70;1.00
32215;DHT22;18708;53.124;23.190;2023-01-29T01:35:07;-1.70;1.00
32215;DHT22;18708;53.124;23.190;2023-01-29T01:37:35;-1.70;1.00
32215;DHT22;18708;53.124;23.190;2023-01-29T01:40:06;-1.70;1.00
32215;DHT22;18708;53.124;23.190;2023-01-29T01:42:38;-1.80;1.00
32215;DHT22;18708;53.124;23.190;2023-01-29T01:45:06;-1.80;1.00
32215;DHT22;18708;53.124;23.190;2023-01-29T01:47:39;-1.80;1.00
32215;DHT22;18708;53.124;23.190;2023-01-29T01:50:17;-1.80;1.00
32215;DHT22;18708;53.124;23.190;2023-01-29T01:52:47;-1.80;99.90
32215;DHT22;18708;53.124;23.190;2023-01-29T01:55:16;-1.80;99.90
32215;DHT22;18708;53.124;23.190;2023-01-29T01:57:45;-1.80;99.90
32215;DHT22;18708;53.124;23.190;2023-01-29T02:00:14;-1.80;99.90
32215;DHT22;18708;53.124;23.190;2023-01-29T02:02:42;-1.80;99.90
32215;DHT22;18708;53.124;23.190;2023-01-29T02:05:29;-1.70;99.90
32215;DHT22;18708;53.124;23.190;2023-01-29T02:08:15;-1.70;1.00
32215;DHT22;18708;53.124;23.190;2023-01-29T02:11:01;-1.70;1.00
32215;DHT22;18708;53.124;23.190;2023-01-29T02:13:26;-1.50;99.90
32215;DHT22;18708;53.124;23.190;2023-01-29T02:15:52;-1.40;23.50
32215;DHT22;18708;53.124;23.190;2023-01-29T02:18:19;-1.40;1.00
32215;DHT22;18708;53.124;23.190;2023-01-29T02:29:34;-1.60;1.00
32215;DHT22;18708;53.124;23.190;2023-01-29T02:34:56;-1.70;99.90
32215;DHT22;18708;53.124;23.190;2023-01-29T02:38:18;-1.70;99.90
32215;DHT22;18708;53.124;23.190;2023-01-29T02:40:51;-1.70;99.90
32215;DHT22;18708;53.124;23.190;2023-01-29T02:43:21;-1.70;99.90
32215;DHT22;18708;53.124;23.190;2023-01-29T02:46:00;-1.60;99.90
32215;DHT22;18708;53.124;23.190;2023-01-29T02:48:35;-1.60;1.00
32215;DHT22;18708;53.124;23.190;2023-01-29T02:51:12;-1.60;1.00
32215;DHT22;18708;53.124;23.190;2023-01-29T02:54:02;-1.60;1.00
32215;DHT22;18708;53.124;23.190;2023-01-29T02:59:02;-1.60;22.80
32215;DHT22;18708;53.124;23.190;2023-01-29T03:01:50;-1.70;99.90
32215;DHT22;18708;53.124;23.190;2023-01-29T03:04:26;-1.70;99.90
32215;DHT22;18708;53.124;23.190;2023-01-29T03:07:03;-1.70;99.90
32215;DHT22;18708;53.124;23.190;2023-01-29T03:09:33;-1.70;99.90
32215;DHT22;18708;53.124;23.190;2023-01-29T03:12:06;-1.70;99.90
32215;DHT22;18708;53.124;23.190;2023-01-29T03:14:46;-1.80;99.90
32215;DHT22;18708;53.124;23.190;2023-01-29T03:17:39;-1.80;1.00
32215;DHT22;18708;53.124;23.190;2023-01-29T03:20:08;-1.80;99.90
32215;DHT22;18708;53.124;23.190;2023-01-29T03:22:39;-1.80;94.00
32215;DHT22;18708;53.124;23.190;2023-01-29T03:25:07;-1.80;99.90
32215;DHT22;18708;53.124;23.190;2023-01-29T03:27:55;-1.80;99.90
32215;DHT22;18708;53.124;23.190;2023-01-29T03:30:54;-1.80;99.60
32215;DHT22;18708;53.124;23.190;2023-01-29T03:33:53;-1.80;99.90
32215;DHT22;18708;53.124;23.190;2023-01-29T03:36:31;-1.80;99.90
32215;DHT22;18708;53.124;23.190;2023-01-29T03:39:07;-1.80;99.90
32215;DHT22;18708;53.124;23.190;2023-01-29T03:41:45;-1.80;99.90
32215;DHT22;18708;53.124;23.190;2023-01-29T03:44:32;-1.80;99.90
32215;DHT22;18708;53.124;23.190;2023-01-29T03:52:21;-1.80;99.90
32215;DHT22;18708;53.124;23.190;2023-01-29T03:55:08;-1.80;1.00
32215;DHT22;18708;53.124;23.190;2023-01-29T03:57:57;-1.80;99.90
32215;DHT22;18708;53.124;23.190;2023-01-29T04:00:49;-1.80;99.90
32215;DHT22;18708;53.124;23.190;2023-01-29T04:04:08;-1.80;1.00
32215;DHT22;18708;53.124;23.190;2023-01-29T04:06:15;-1.80;1.00
32215;DHT22;18708;53.124;23.190;2023-01-29T04:11:17;-1.80;1.00
32215;DHT22;18708;53.124;23.190;2023-01-29T04:13:44;-1.80;1.00
32215;DHT22;18708;53.124;23.190;2023-01-29T04:16:15;-1.80;1.00
32215;DHT22;18708;53.124;23.190;2023-01-29T04:18:47;-1.80;1.00
32215;DHT22;18708;53.124;23.190;2023-01-29T04:21:13;-1.80;1.00
32215;DHT22;18708;53.124;23.190;2023-01-29T04:23:39;-1.80;1.00
32215;DHT22;18708;53.124;23.190;2023-01-29T04:26:14;-1.80;1.00
32215;DHT22;18708;53.124;23.190;2023-01-29T04:31:25;-1.80;1.00
32215;DHT22;18708;53.124;23.190;2023-01-29T04:39:55;-1.80;1.00
32215;DHT22;18708;53.124;23.190;2023-01-29T04:42:36;-1.70;1.00
32215;DHT22;18708;53.124;23.190;2023-01-29T04:53:22;-1.80;1.00
32215;DHT22;18708;53.124;23.190;2023-01-29T04:58:32;-1.70;1.00
32215;DHT22;18708;53.124;23.190;2023-01-29T05:01:01;-1.70;1.00
32215;DHT22;18708;53.124;23.190;2023-01-29T05:03:30;-1.70;1.00
32215;DHT22;18708;53.124;23.190;2023-01-29T05:05:59;-1.70;1.00
32215;DHT22;18708;53.124;23.190;2023-01-29T05:08:27;-1.70;1.00
32215;DHT22;18708;53.124;23.190;2023-01-29T05:10:56;-1.70;1.00
32215;DHT22;18708;53.124;23.190;2023-01-29T05:13:24;-1.70;1.00
32215;DHT22;18708;53.124;23.190;2023-01-29T05:16:06;-1.70;1.00
32215;DHT22;18708;53.124;23.190;2023-01-29T05:18:34;-1.70;1.00
32215;DHT22;18708;53.124;23.190;2023-01-29T05:21:05;-1.70;1.00
32215;DHT22;18708;53.124;23.190;2023-01-29T05:23:31;-1.70;1.00
32215;DHT22;18708;53.124;23.190;2023-01-29T05:25:57;-1.70;99.90
32215;DHT22;18708;53.124;23.190;2023-01-29T05:28:23;-1.70;99.90
32215;DHT22;18708;53.124;23.190;2023-01-29T05:30:51;-1.70;99.90
32215;DHT22;18708;53.124;23.190;2023-01-29T05:33:21;-1.60;90.60
32215;DHT22;18708;53.124;23.190;2023-01-29T05:35:48;-1.70;93.80
32215;DHT22;18708;53.124;23.190;2023-01-29T05:38:15;-1.70;18.10
32215;DHT22;18708;53.124;23.190;2023-01-29T05:40:41;-1.60;54.00
32215;DHT22;18708;53.124;23.190;2023-01-29T05:43:19;-1.60;13.40
32215;DHT22;18708;53.124;23.190;2023-01-29T05:45:56;-1.60;1.00
32215;DHT22;18708;53.124;23.190;2023-01-29T05:48:22;-1.60;22.80
32215;DHT22;18708;53.124;23.190;2023-01-29T05:50:48;-1.60;57.90
32215;DHT22;18708;53.124;23.190;2023-01-29T05:53:13;-1.60;99.90
32215;DHT22;18708;53.124;23.190;2023-01-29T05:55:42;-1.60;99.90
32215;DHT22;18708;53.124;23.190;2023-01-29T05:58:08;-1.60;99.90
32215;DHT22;18708;53.124;23.190;2023-01-29T06:00:33;-1.60;99.90
32215;DHT22;18708;53.124;23.190;2023-01-29T06:02:59;-1.60;99.90
32215;DHT22;18708;53.124;23.190;2023-01-29T06:05:25;-1.60;99.90
32215;DHT22;18708;53.124;23.190;2023-01-29T06:07:50;-1.50;99.90
32215;DHT22;18708;53.124;23.190;2023-01-29T06:10:17;-1.50;99.90
32215;DHT22;18708;53.124;23.190;2023-01-29T06:12:43;-1.50;99.90
32215;DHT22;18708;53.124;23.190;2023-01-29T06:15:11;-1.50;99.90
32215;DHT22;18708;53.124;23.190;2023-01-29T06:17:36;-1.50;99.90
32215;DHT22;18708;53.124;23.190;2023-01-29T06:20:03;-1.50;99.90
32215;DHT22;18708;53.124;23.190;2023-01-29T06:22:29;-1.50;99.90
32215;DHT22;18708;53.124;23.190;2023-01-29T06:24:55;-1.50;99.90
32215;DHT22;18708;53.124;23.190;2023-01-29T06:27:20;-1.50;99.90
32215;DHT22;18708;53.124;23.190;2023-01-29T06:29:46;-1.50;99.90
32215;DHT22;18708;53.124;23.190;2023-01-29T06:32:11;-1.40;99.90
32215;DHT22;18708;53.124;23.190;2023-01-29T06:34:37;-1.40;99.90
32215;DHT22;18708;53.124;23.190;2023-01-29T06:37:03;-1.40;99.90
32215;DHT22;18708;53.124;23.190;2023-01-29T06:39:28;-1.40;99.90
32215;DHT22;18708;53.124;23.190;2023-01-29T06:41:54;-1.40;99.90
32215;DHT22;18708;53.124;23.190;2023-01-29T06:44:19;-1.30;99.90
32215;DHT22;18708;53.124;23.190;2023-01-29T06:46:45;-1.40;99.90
32215;DHT22;18708;53.124;23.190;2023-01-29T06:49:11;-1.30;99.90
32215;DHT22;18708;53.124;23.190;2023-01-29T06:51:36;-1.30;99.90
32215;DHT22;18708;53.124;23.190;2023-01-29T06:54:02;-1.30;99.90
32215;DHT22;18708;53.124;23.190;2023-01-29T06:56:28;-1.30;99.90
32215;DHT22;18708;53.124;23.190;2023-01-29T06:58:53;-1.30;99.90
32215;DHT22;18708;53.124;23.190;2023-01-29T07:01:19;-1.30;99.90
32215;DHT22;18708;53.124;23.190;2023-01-29T07:03:48;-1.30;99.90
32215;DHT22;18708;53.124;23.190;2023-01-29T07:06:14;-1.30;99.90
32215;DHT22;18708;53.124;23.190;2023-01-29T07:08:40;-1.20;99.90
32215;DHT22;18708;53.124;23.190;2023-01-29T07:11:06;-1.20;99.90
32215;DHT22;18708;53.124;23.190;2023-01-29T07:13:31;-1.20;99.90
32215;DHT22;18708;53.124;23.190;2023-01-29T07:16:01;-1.20;99.90
32215;DHT22;18708;53.124;23.190;2023-01-29T07:18:28;-1.20;99.90
32215;DHT22;18708;53.124;23.190;2023-01-29T07:20:54;-1.20;99.90
32215;DHT22;18708;53.124;23.190;2023-01-29T07:23:19;-1.20;99.90
32215;DHT22;18708;53.124;23.190;2023-01-29T07:25:45;-1.10;99.90
32215;DHT22;18708;53.124;23.190;2023-01-29T07:28:17;-1.10;1.00
32215;DHT22;18708;53.124;23.190;2023-01-29T07:30:43;-1.10;1.00
32215;DHT22;18708;53.124;23.190;2023-01-29T07:33:09;-1.10;1.00
32215;DHT22;18708;53.124;23.190;2023-01-29T07:35:40;-1.10;1.00
32215;DHT22;18708;53.124;23.190;2023-01-29T07:38:07;-1.10;1.00
32215;DHT22;18708;53.124;23.190;2023-01-29T07:40:32;-1.10;1.00
32215;DHT22;18708;53.124;23.190;2023-01-29T07:42:59;-1.10;1.00
32215;DHT22;18708;53.124;23.190;2023-01-29T07:45:27;-1.00;1.00
32215;DHT22;18708;53.124;23.190;2023-01-29T07:47:54;-1.00;1.00
32215;DHT22;18708;53.124;23.190;2023-01-29T07:50:24;-1.10;1.00
32215;DHT22;18708;53.124;23.190;2023-01-29T07:52:50;-1.10;1.00
32215;DHT22;18708;53.124;23.190;2023-01-29T07:55:16;-1.00;1.00
32215;DHT22;18708;53.124;23.190;2023-01-29T07:57:42;-1.00;1.00
32215;DHT22;18708;53.124;23.190;2023-01-29T08:00:09;-1.00;1.00
32215;DHT22;18708;53.124;23.190;2023-01-29T08:02:39;-0.90;1.00
32215;DHT22;18708;53.124;23.190;2023-01-29T08:05:05;-1.00;1.00
32215;DHT22;18708;53.124;23.190;2023-01-29T08:07:31;-0.90;1.00
32215;DHT22;18708;53.124;23.190;2023-01-29T08:09:56;-0.90;1.00
32215;DHT22;18708;53.124;23.190;2023-01-29T08:12:22;-0.90;1.00
32215;DHT22;18708;53.124;23.190;2023-01-29T08:14:47;-0.80;1.00
32215;DHT22;18708;53.124;23.190;2023-01-29T08:17:14;-0.80;1.00
32215;DHT22;18708;53.124;23.190;2023-01-29T08:19:40;-0.80;99.90
32215;DHT22;18708;53.124;23.190;2023-01-29T08:22:05;-0.80;99.90
32215;DHT22;18708;53.124;23.190;2023-01-29T08:24:31;-0.80;99.90
32215;DHT22;18708;53.124;23.190;2023-01-29T08:26:57;-0.80;99.90
32215;DHT22;18708;53.124;23.190;2023-01-29T08:29:22;-0.70;99.90
32215;DHT22;18708;53.124;23.190;2023-01-29T08:31:48;-0.80;99.90
32215;DHT22;18708;53.124;23.190;2023-01-29T08:34:14;-0.80;1.00
32215;DHT22;18708;53.124;23.190;2023-01-29T08:36:39;-0.80;1.00
32215;DHT22;18708;53.124;23.190;2023-01-29T08:39:05;-0.80;1.00
32215;DHT22;18708;53.124;23.190;2023-01-29T08:41:31;-0.70;1.00
32215;DHT22;18708;53.124;23.190;2023-01-29T08:43:57;-0.70;1.00
32215;DHT22;18708;53.124;23.190;2023-01-29T08:46:24;-0.70;1.00
32215;DHT22;18708;53.124;23.190;2023-01-29T08:48:50;-0.80;1.00
32215;DHT22;18708;53.124;23.190;2023-01-29T08:51:15;-0.70;1.00
32215;DHT22;18708;53.124;23.190;2023-01-29T08:53:41;-0.70;1.00
32215;DHT22;18708;53.124;23.190;2023-01-29T08:56:07;-0.70;1.00
32215;DHT22;18708;53.124;23.190;2023-01-29T08:58:32;-0.80;1.00
32215;DHT22;18708;53.124;23.190;2023-01-29T09:01:05;-0.80;1.00
32215;DHT22;18708;53.124;23.190;2023-01-29T09:03:31;-0.70;1.00
32215;DHT22;18708;53.124;23.190;2023-01-29T09:05:57;-0.70;1.00
32215;DHT22;18708;53.124;23.190;2023-01-29T09:08:22;-0.70;1.00
32215;DHT22;18708;53.124;23.190;2023-01-29T09:10:48;-0.60;1.00
32215;DHT22;18708;53.124;23.190;2023-01-29T09:13:13;-0.60;1.00
32215;DHT22;18708;53.124;23.190;2023-01-29T09:15:39;-0.60;1.00
32215;DHT22;18708;53.124;23.190;2023-01-29T09:18:05;-0.50;1.00
32215;DHT22;18708;53.124;23.190;2023-01-29T09:20:30;-0.50;1.00
32215;DHT22;18708;53.124;23.190;2023-01-29T09:22:56;-0.50;1.00
32215;DHT22;18708;53.124;23.190;2023-01-29T09:25:24;-0.60;1.00
32215;DHT22;18708;53.124;23.190;2023-01-29T09:27:49;-0.50;1.00
32215;DHT22;18708;53.124;23.190;2023-01-29T09:30:15;-0.50;1.00
32215;DHT22;18708;53.124;23.190;2023-01-29T09:32:41;-0.50;1.00
32215;DHT22;18708;53.124;23.190;2023-01-29T09:35:07;-0.50;1.00
32215;DHT22;18708;53.124;23.190;2023-01-29T09:37:35;-0.50;1.00
32215;DHT22;18708;53.124;23.190;2023-01-29T09:40:01;-0.40;1.00
32215;DHT22;18708;53.124;23.190;2023-01-29T09:42:37;-0.40;1.00
32215;DHT22;18708;53.124;23.190;2023-01-29T09:45:23;-0.40;1.00
32215;DHT22;18708;53.124;23.190;2023-01-29T09:47:49;-0.40;1.00
32215;DHT22;18708;53.124;23.190;2023-01-29T09:50:25;-0.40;1.00
32215;DHT22;18708;53.124;23.190;2023-01-29T09:55:48;-0.40;1.00
32215;DHT22;18708;53.124;23.190;2023-01-29T09:58:38;-0.30;1.00
32215;DHT22;18708;53.124;23.190;2023-01-29T10:06:48;-0.40;1.00
32215;DHT22;18708;53.124;23.190;2023-01-29T10:15:01;-0.40;1.00
32215;DHT22;18708;53.124;23.190;2023-01-29T10:23:23;-0.30;1.00
32215;DHT22;18708;53.124;23.190;2023-01-29T10:25:50;-0.20;1.00
32215;DHT22;18708;53.124;23.190;2023-01-29T10:28:33;-0.20;1.00
32215;DHT22;18708;53.124;23.190;2023-01-29T10:31:29;-0.20;1.00
32215;DHT22;18708;53.124;23.190;2023-01-29T10:34:02;-0.30;1.00
32215;DHT22;18708;53.124;23.190;2023-01-29T10:39:20;-0.30;1.00
32215;DHT22;18708;53.124;23.190;2023-01-29T10:44:38;-0.30;1.00
32215;DHT22;18708;53.124;23.190;2023-01-29T10:47:13;-0.30;1.00
32215;DHT22;18708;53.124;23.190;2023-01-29T11:00:52;-0.30;71.40
32215;DHT22;18708;53.124;23.190;2023-01-29T11:03:23;-0.30;40.70
32215;DHT22;18708;53.124;23.190;2023-01-29T11:09:13;-0.30;49.50
32215;DHT22;18708;53.124;23.190;2023-01-29T11:14:23;-0.30;22.80
32215;DHT22;18708;53.124;23.190;2023-01-29T11:16:50;-0.30;14.80
32215;DHT22;18708;53.124;23.190;2023-01-29T11:19:16;-0.30;1.00
32215;DHT22;18708;53.124;23.190;2023-01-29T11:24:20;-0.30;3.60
32215;DHT22;18708;53.124;23.190;2023-01-29T11:26:47;-0.30;32.40
32215;DHT22;18708;53.124;23.190;2023-01-29T11:31:52;-0.30;37.20
32215;DHT22;18708;53.124;23.190;2023-01-29T11:34:21;-0.30;30.30
32215;DHT22;18708;53.124;23.190;2023-01-29T11:36:57;-0.30;48.70
32215;DHT22;18708;53.124;23.190;2023-01-29T11:39:24;-0.40;88.10
32215;DHT22;18708;53.124;23.190;2023-01-29T11:42:01;-0.40;99.90
32215;DHT22;18708;53.124;23.190;2023-01-29T11:49:35;-0.30;99.90
32215;DHT22;18708;53.124;23.190;2023-01-29T11:52:04;-0.20;57.50
32215;DHT22;18708;53.124;23.190;2023-01-29T11:54:35;-0.30;55.30
32215;DHT22;18708;53.124;23.190;2023-01-29T11:57:03;-0.20;76.60
32215;DHT22;18708;53.124;23.190;2023-01-29T11:59:41;-0.20;92.00
32215;DHT22;18708;53.124;23.190;2023-01-29T12:04:54;-0.40;99.90
32215;DHT22;18708;53.124;23.190;2023-01-29T12:07:21;-0.30;99.90
32215;DHT22;18708;53.124;23.190;2023-01-29T12:09:55;-0.30;99.90
32215;DHT22;18708;53.124;23.190;2023-01-29T12:12:50;-0.30;99.90
32215;DHT22;18708;53.124;23.190;2023-01-29T12:15:21;-0.30;99.90
32215;DHT22;18708;53.124;23.190;2023-01-29T12:20:45;-0.30;99.90
32215;DHT22;18708;53.124;23.190;2023-01-29T12:28:29;-0.30;99.90
32215;DHT22;18708;53.124;23.190;2023-01-29T12:34:00;-0.30;99.90
32215;DHT22;18708;53.124;23.190;2023-01-29T12:39:21;-0.30;99.90
32215;DHT22;18708;53.124;23.190;2023-01-29T12:44:50;-0.30;99.90
32215;DHT22;18708;53.124;23.190;2023-01-29T12:47:22;-0.30;99.90
32215;DHT22;18708;53.124;23.190;2023-01-29T12:49:56;-0.30;99.90
32215;DHT22;18708;53.124;23.190;2023-01-29T12:52:46;-0.30;99.90
32215;DHT22;18708;53.124;23.190;2023-01-29T12:55:17;-0.20;99.90
32215;DHT22;18708;53.124;23.190;2023-01-29T12:57:56;-0.30;99.90
32215;DHT22;18708;53.124;23.190;2023-01-29T13:06:02;-0.20;99.90
32215;DHT22;18708;53.124;23.190;2023-01-29T13:08:39;-0.20;99.90
32215;DHT22;18708;53.124;23.190;2023-01-29T13:13:58;-0.20;99.90
32215;DHT22;18708;53.124;23.190;2023-01-29T13:16:30;-0.20;99.90
32215;DHT22;18708;53.124;23.190;2023-01-29T13:18:58;-0.20;99.90
32215;DHT22;18708;53.124;23.190;2023-01-29T13:21:29;-0.20;99.90
32215;DHT22;18708;53.124;23.190;2023-01-29T13:23:59;-0.20;99.90
32215;DHT22;18708;53.124;23.190;2023-01-29T13:26:26;-0.20;99.90
32215;DHT22;18708;53.124;23.190;2023-01-29T13:28:53;-0.20;99.90
32215;DHT22;18708;53.124;23.190;2023-01-29T13:31:35;-0.20;99.90
32215;DHT22;18708;53.124;23.190;2023-01-29T13:36:44;-0.20;99.90
32215;DHT22;18708;53.124;23.190;2023-01-29T13:39:28;-0.10;99.90
32215;DHT22;18708;53.124;23.190;2023-01-29T13:41:56;-0.20;99.90
32215;DHT22;18708;53.124;23.190;2023-01-29T13:44:26;-0.20;99.90
32215;DHT22;18708;53.124;23.190;2023-01-29T13:49:32;-0.20;99.90
32215;DHT22;18708;53.124;23.190;2023-01-29T13:55:18;-0.20;99.90
32215;DHT22;18708;53.124;23.190;2023-01-29T13:57:54;-0.20;99.90
32215;DHT22;18708;53.124;23.190;2023-01-29T14:10:35;-0.30;99.90
32215;DHT22;18708;53.124;23.190;2023-01-29T14:15:36;-0.20;99.90
32215;DHT22;18708;53.124;23.190;2023-01-29T14:18:20;-0.30;99.90
32215;DHT22;18708;53.124;23.190;2023-01-29T14:25:52;-0.30;99.90
32215;DHT22;18708;53.124;23.190;2023-01-29T14:28:38;-0.30;99.90
32215;DHT22;18708;53.124;23.190;2023-01-29T14:31:04;-0.30;99.90
32215;DHT22;18708;53.124;23.190;2023-01-29T14:33:39;-0.30;99.90
32215;DHT22;18708;53.124;23.190;2023-01-29T14:36:11;-0.30;99.90
32215;DHT22;18708;53.124;23.190;2023-01-29T14:38:38;-0.30;99.90
32215;DHT22;18708;53.124;23.190;2023-01-29T14:41:17;-0.30;99.90
32215;DHT22;18708;53.124;23.190;2023-01-29T14:43:48;-0.20;99.90
32215;DHT22;18708;53.124;23.190;2023-01-29T14:48:57;-0.20;99.90
32215;DHT22;18708;53.124;23.190;2023-01-29T14:51:24;-0.20;99.90
32215;DHT22;18708;53.124;23.190;2023-01-29T14:56:39;-0.30;99.90
32215;DHT22;18708;53.124;23.190;2023-01-29T14:59:14;-0.30;99.90
32215;DHT22;18708;53.124;23.190;2023-01-29T15:01:46;-0.30;99.90
32215;DHT22;18708;53.124;23.190;2023-01-29T15:04:36;-0.30;99.90
32215;DHT22;18708;53.124;23.190;2023-01-29T15:07:17;-0.30;99.90
32215;DHT22;18708;53.124;23.190;2023-01-29T15:10:05;-0.30;99.90
32215;DHT22;18708;53.124;23.190;2023-01-29T15:12:46;-0.20;99.90
32215;DHT22;18708;53.124;23.190;2023-01-29T15:17:48;-0.20;99.90
32215;DHT22;18708;53.124;23.190;2023-01-29T15:20:29;-0.20;99.90
32215;DHT22;18708;53.124;23.190;2023-01-29T15:22:55;-0.20;99.90
32215;DHT22;18708;53.124;23.190;2023-01-29T15:25:21;-0.30;99.90
32215;DHT22;18708;53.124;23.190;2023-01-29T15:27:48;-0.30;99.90
32215;DHT22;18708;53.124;23.190;2023-01-29T15:30:32;-0.30;99.90
32215;DHT22;18708;53.124;23.190;2023-01-29T15:32:59;-0.30;99.90
32215;DHT22;18708;53.124;23.190;2023-01-29T15:35:34;-0.30;99.90
32215;DHT22;18708;53.124;23.190;2023-01-29T15:38:17;-0.30;99.90
32215;DHT22;18708;53.124;23.190;2023-01-29T15:40:52;-0.20;99.90
32215;DHT22;18708;53.124;23.190;2023-01-29T15:45:55;-0.20;99.90
32215;DHT22;18708;53.124;23.190;2023-01-29T15:48:32;-0.30;99.90
32215;DHT22;18708;53.124;23.190;2023-01-29T15:51:00;-0.30;99.90
32215;DHT22;18708;53.124;23.190;2023-01-29T15:53:34;-0.30;99.90
32215;DHT22;18708;53.124;23.190;2023-01-29T15:56:00;-0.20;99.90
32215;DHT22;18708;53.124;23.190;2023-01-29T15:58:31;-0.20;99.90
32215;DHT22;18708;53.124;23.190;2023-01-29T16:00:58;-0.20;99.90
32215;DHT22;18708;53.124;23.190;2023-01-29T16:03:27;-0.30;99.90
32215;DHT22;18708;53.124;23.190;2023-01-29T16:05:55;-0.30;99.90
32215;DHT22;18708;53.124;23.190;2023-01-29T16:08:22;-0.30;99.90
32215;DHT22;18708;53.124;23.190;2023-01-29T16:10:55;-0.30;99.90
32215;DHT22;18708;53.124;23.190;2023-01-29T16:13:24;-0.30;99.90
32215;DHT22;18708;53.124;23.190;2023-01-29T16:16:14;-0.30;99.90
32215;DHT22;18708;53.124;23.190;2023-01-29T16:18:42;-0.30;99.90
32215;DHT22;18708;53.124;23.190;2023-01-29T16:21:10;-0.30;99.90
32215;DHT22;18708;53.124;23.190;2023-01-29T16:24:05;-0.30;99.90
32215;DHT22;18708;53.124;23.190;2023-01-29T16:26:35;-0.30;99.90
32215;DHT22;18708;53.124;23.190;2023-01-29T16:29:06;-0.30;99.90
32215;DHT22;18708;53.124;23.190;2023-01-29T16:31:34;-0.30;99.90
32215;DHT22;18708;53.124;23.190;2023-01-29T16:34:06;-0.30;99.90
32215;DHT22;18708;53.124;23.190;2023-01-29T16:36:33;-0.30;99.90
32215;DHT22;18708;53.124;23.190;2023-01-29T16:39:04;-0.30;99.90
32215;DHT22;18708;53.124;23.190;2023-01-29T16:41:32;-0.30;99.90
32215;DHT22;18708;53.124;23.190;2023-01-29T16:44:03;-0.30;99.90
32215;DHT22;18708;53.124;23.190;2023-01-29T16:46:48;-0.30;99.90
32215;DHT22;18708;53.124;23.190;2023-01-29T16:51:51;-0.20;99.90
32215;DHT22;18708;53.124;23.190;2023-01-29T16:54:20;-0.30;99.90
32215;DHT22;18708;53.124;23.190;2023-01-29T16:56:50;-0.20;99.90
32215;DHT22;18708;53.124;23.190;2023-01-29T16:59:23;-0.30;99.90
32215;DHT22;18708;53.124;23.190;2023-01-29T17:01:52;-0.20;99.90
32215;DHT22;18708;53.124;23.190;2023-01-29T17:04:18;-0.20;99.90
32215;DHT22;18708;53.124;23.190;2023-01-29T17:06:47;-0.20;99.90
32215;DHT22;18708;53.124;23.190;2023-01-29T17:09:27;-0.20;99.90
32215;DHT22;18708;53.124;23.190;2023-01-29T17:11:56;-0.30;99.90
32215;DHT22;18708;53.124;23.190;2023-01-29T17:14:24;-0.20;99.90
32215;DHT22;18708;53.124;23.190;2023-01-29T17:16:56;-0.20;99.90
32215;DHT22;18708;53.124;23.190;2023-01-29T17:19:25;-0.20;99.90
32215;DHT22;18708;53.124;23.190;2023-01-29T17:21:51;-0.20;99.90
32215;DHT22;18708;53.124;23.190;2023-01-29T17:24:17;-0.20;99.90
32215;DHT22;18708;53.124;23.190;2023-01-29T17:26:43;-0.20;99.90
32215;DHT22;18708;53.124;23.190;2023-01-29T17:29:19;-0.20;99.90
32215;DHT22;18708;53.124;23.190;2023-01-29T17:31:45;-0.20;99.90
32215;DHT22;18708;53.124;23.190;2023-01-29T17:34:13;-0.20;99.90
32215;DHT22;18708;53.124;23.190;2023-01-29T17:36:40;-0.20;99.90
32215;DHT22;18708;53.124;23.190;2023-01-29T17:39:22;-0.20;99.90
32215;DHT22;18708;53.124;23.190;2023-01-29T17:41:57;-0.20;99.90
32215;DHT22;18708;53.124;23.190;2023-01-29T17:44:23;-0.20;99.90
32215;DHT22;18708;53.124;23.190;2023-01-29T17:46:52;-0.20;99.90
32215;DHT22;18708;53.124;23.190;2023-01-29T17:49:24;-0.20;99.90
32215;DHT22;18708;53.124;23.190;2023-01-29T17:51:51;-0.20;99.90
32215;DHT22;18708;53.124;23.190;2023-01-29T17:54:18;-0.20;99.90
32215;DHT22;18708;53.124;23.190;2023-01-29T17:56:43;-0.20;99.90
32215;DHT22;18708;53.124;23.190;2023-01-29T17:59:21;-0.20;99.90
32215;DHT22;18708;53.124;23.190;2023-01-29T18:01:47;-0.20;99.90
32215;DHT22;18708;53.124;23.190;2023-01-29T18:04:14;-0.20;99.90
32215;DHT22;18708;53.124;23.190;2023-01-29T18:06:42;-0.20;99.90
32215;DHT22;18708;53.124;23.190;2023-01-29T18:09:12;-0.20;99.90
32215;DHT22;18708;53.124;23.190;2023-01-29T18:11:38;-0.20;99.90
32215;DHT22;18708;53.124;23.190;2023-01-29T18:14:03;-0.20;99.90
32215;DHT22;18708;53.124;23.190;2023-01-29T18:16:29;-0.20;99.90
32215;DHT22;18708;53.124;23.190;2023-01-29T18:19:02;-0.20;99.90
32215;DHT22;18708;53.124;23.190;2023-01-29T18:21:28;-0.20;99.90
32215;DHT22;18708;53.124;23.190;2023-01-29T18:23:53;-0.20;99.90